This is the latest recevied weather packets stored in our database for station/object KY4EF. If no packets are shown the sender has not sent any weather packets the latest 10 day(s).
| Time | Temp. | Humidity | Pressure | Rain* | Wind** | Luminosity | Snow |
|---|---|---|---|---|---|---|---|
| 1777932323 | 24.44° C | 37% | 1012.5 hPa | 0 mm | - | 80 W/m² | - |
| 1777932020 | 25° C | 37% | 1012.4 hPa | 0 mm | - | 107 W/m² | - |
| 1777931716 | 25.56° C | 36% | 1012.4 hPa | 0 mm | - | 179 W/m² | - |
| 1777931414 | 25° C | 37% | 1012.4 hPa | 0 mm | - | 177 W/m² | - |
| 1777931110 | 25.56° C | 34% | 1012.4 hPa | 0 mm | - | 189 W/m² | - |
| 1777930806 | 25.56° C | 36% | 1012.3 hPa | 0 mm | - | 132 W/m² | - |
| 1777930502 | 24.44° C | 36% | 1012.4 hPa | 0 mm | - | 266 W/m² | - |
| 1777930200 | 24.44° C | 36% | 1012.4 hPa | 0 mm | - | 246 W/m² | - |
| 1777929896 | 25° C | 34% | 1012.4 hPa | 0 mm | - | 267 W/m² | - |
| 1777929593 | 25.56° C | 35% | 1012.3 hPa | 0 mm | - | 281 W/m² | - |
| 1777929289 | 25.56° C | 34% | 1012.4 hPa | 0 mm | - | 308 W/m² | - |
| 1777928987 | 25.56° C | 32% | 1012.3 hPa | 0 mm | - | 279 W/m² | - |
| 1777928684 | 24.44° C | 35% | 1012.5 hPa | 0 mm | - | 271 W/m² | - |
| 1777928382 | 24.44° C | 39% | 1012.4 hPa | 0 mm | - | 295 W/m² | - |
| 1777928079 | 24.44° C | 37% | 1012.4 hPa | 0 mm | - | 329 W/m² | - |
| 1777927777 | 25° C | 39% | 1012.5 hPa | 0 mm | - | 320 W/m² | - |
| 1777927475 | 25.56° C | 34% | 1012.6 hPa | 0 mm | - | 327 W/m² | - |
| 1777927174 | 23.89° C | 36% | 1012.7 hPa | 0 mm | - | 339 W/m² | - |
| 1777926871 | 25° C | 35% | 1012.7 hPa | 0 mm | - | 288 W/m² | - |
| 1777926567 | 25.56° C | 35% | 1012.7 hPa | 0 mm | - | 300 W/m² | - |
| 1777926263 | 25.56° C | 35% | 1012.9 hPa | 0 mm | - | 289 W/m² | - |
| 1777925960 | 25° C | 37% | 1012.6 hPa | 0 mm | - | 309 W/m² | - |
| 1777925658 | 25.56° C | 34% | 1012.7 hPa | 0 mm | - | 301 W/m² | - |
| 1777925355 | 25.56° C | 36% | 1013 hPa | 0 mm | - | 266 W/m² | - |
| 1777925051 | 26.67° C | 33% | 1012.6 hPa | 0 mm | - | 293 W/m² | - |
* Rain latest hour (hover to see other rain measurements)
** Current wind speed in m/s (hover to see current wind gust speed)